Latest Coastal Weather Observations for Troughton Island

IDD60701

Issued at 12:01 am CST Friday 31 March 2017 (issued every 10 minutes, with the page automatically refreshed every 10 minutes)

About coastal observations | Map of coastal stations | Coastal observations for NT | Marine services | Other Formats
Station Details ID: 001007 Name: TROUGHTON ISLAND Lat: -13.75 Lon: 126.15 Height: 6.0 m
Data from the previous 72 hours. | See also: Recent months at Troughton Island
Date/Time
CST
Temp
°C
Wind Pressure Rain since
9am
mm
Weather Cloud Vis
km
Sea
Height
m
Swell
Dir  Spd
kts
Gust
kts
hPa Trend Height
m
Period
s
Dir
30/11:30pm 29.4 WSW 12 14 1010.8 - 0.6 - - - - - - -
30/11:00pm 29.3 WSW 10 11 1010.8 - 0.6 - - - - - - -
30/10:30pm 29.3 SW 10 12 1010.9 - 0.6 - - - - - - -
30/10:00pm 29.1 SW 9 10 1010.7 - 0.6 - - - - - - -
30/09:30pm 29.0 SW 8 9 1010.4 - 0.6 - - - - - - -
30/09:00pm 29.0 SW 10 11 1010.1 - 0.6 - - - - - - -
30/08:30pm 28.9 SSW 9 11 1009.8 - 0.6 - - - - - - -
30/08:00pm 28.8 SW 9 11 1009.3 - 0.6 - - - - - - -
30/07:30pm 28.6 SW 8 9 1008.5 - 0.6 - - - - - - -
30/07:00pm 28.5 WSW 9 11 1008.4 - 0.6 - - - - - - -
30/06:30pm 28.4 WSW 9 10 1008.1 - 0.6 - - - - - - -
30/06:00pm 28.4 W 10 12 1008.3 - 0.6 - - - - - - -
30/05:30pm 28.2 WNW 10 12 1008.0 - 0.6 - - - - - - -
30/05:00pm 27.5 NW 12 15 1008.0 - 0.6 - - - - - - -
30/04:30pm 27.1 NW 13 16 1008.1 - 0.6 - - - - - - -
30/04:00pm 26.7 NW 13 17 1008.5 - 0.6 - - - - - - -
30/03:30pm 26.3 NNW 18 23 1008.9 - 0.6 - - - - - - -
30/03:00pm 26.4 N 13 19 1009.3 - 0.6 - - - - - - -
30/02:30pm 27.4 NNE 12 15 1009.2 - 0.6 - - - - - - -
30/02:00pm 25.9 NNE 18 28 1010.2 - 0.6 - - - - - - -
30/01:30pm 25.2 NE 21 34 1011.0 - 0.4 Rain - - - - - -
30/01:20pm 28.6 NW 6 30 1011.9 - 0.0 - - - - - - -
30/01:00pm 31.1 WSW 6 8 1010.3 - 0.0 - - - - - - -
30/12:30pm 33.0 WSW 8 10 1010.4 - 0.0 - - - - - - -
30/12:00pm 32.4 WSW 12 14 1010.4 - 0.0 - - - - - - -
30/11:30am 32.6 SW 9 11 1011.0 - 0.0 - - - - - - -
30/11:00am 31.2 WSW 11 14 1011.5 - 0.0 - - - - - - -
30/10:30am 31.6 WSW 11 13 1011.7 - 0.0 - - - - - - -
30/10:00am 30.9 WSW 12 15 1011.3 - 0.0 - - - - - - -
30/09:30am 30.5 WSW 14 17 1011.2 - 0.0 - - - - - - -
30/09:00am 30.5 WSW 13 16 1011.0 - 0.0 - - - - - - -
30/08:30am 30.1 WSW 14 17 1010.9 - 0.0 - - - - - - -
30/08:00am 29.5 W 12 15 1010.6 - 0.0 - - - - - - -
30/07:30am 29.4 WSW 13 16 1010.6 - 0.0 - - - - - - -
30/07:00am 29.4 WSW 14 17 1010.2 - 0.0 - - - - - - -
30/06:30am 29.2 WSW 14 16 1009.8 - 0.0 - - - - - - -
30/06:00am 29.3 WSW 15 17 1009.5 - 0.0 - - - - - - -
30/05:30am 29.3 W 14 18 1009.4 - 0.0 - - - - - - -
30/05:00am 29.4 WSW 13 17 1009.8 - 0.0 - - - - - - -
30/04:30am 29.3 WSW 13 15 1009.8 - 0.0 - - - - - - -
30/04:00am 29.3 WSW 13 15 1010.0 - 0.0 - - - - - - -
30/03:30am 29.3 WSW 11 14 1009.9 - 0.0 - - - - - - -
30/03:00am 29.3 W 13 16 1009.6 - 0.0 - - - - - - -
30/02:30am 29.2 WSW 14 17 1009.5 - 0.0 - - - - - - -
30/02:00am 29.2 WSW 15 18 1009.3 - 0.0 - - - - - - -
30/01:30am 29.2 WSW 15 18 1009.3 - 0.0 - - - - - - -
30/01:00am 29.1 W 15 18 1009.2 - 0.0 - - - - - - -
30/12:30am 29.2 W 14 16 1009.7 - 0.0 - - - - - - -
30/12:00am 29.1 W 13 15 1010.1 - 0.0 - - - - - - -
 
Date/Time
CST
Temp
°C
Wind Pressure Rain since
9am
mm
Weather Cloud Vis
km
Sea
Height
m
Swell
Dir  Spd
kts
Gust
kts
hPa Trend Height
m
Period
s
Dir
29/11:30pm 29.2 W 12 14 1010.5 - 0.0 - - - - - - -
29/11:00pm 29.2 W 12 14 1010.7 - 0.0 - - - - - - -
29/10:30pm 29.2 WSW 13 15 1010.7 - 0.0 - - - - - - -
29/10:00pm 29.0 WSW 13 15 1010.4 - 0.0 - - - - - - -
29/09:30pm 29.0 W 13 16 1010.1 - 0.0 - - - - - - -
29/09:00pm 29.1 W 14 17 1009.5 - 0.0 - - - - - - -
29/08:30pm 29.1 W 14 17 1009.1 - 0.0 - - - - - - -
29/08:00pm 29.2 W 14 17 1008.5 - 0.0 - - - - - - -
29/07:30pm 29.3 W 16 18 1007.9 - 0.0 - - - - - - -
29/07:00pm 29.6 W 16 19 1007.9 - 0.0 - - - - - - -
29/06:30pm 30.1 W 17 19 1007.4 - 0.0 - - - - - - -
29/06:00pm 30.6 W 17 19 1007.1 - 0.0 - - - - - - -
29/05:30pm 31.0 W 15 19 1007.2 - 0.0 - - - - - - -
29/05:00pm 31.7 W 14 16 1007.2 - 0.0 - - - - - - -
29/04:30pm 31.6 W 15 17 1007.3 - 0.0 - - - - - - -
29/04:00pm 31.9 W 16 19 1007.4 - 0.0 - - - - - - -
29/03:30pm 31.9 W 17 20 1007.6 - 0.0 - - - - - - -
29/03:00pm 32.1 WSW 15 18 1008.0 - 0.0 - - - - - - -
29/02:30pm 32.0 W 13 16 1008.5 - 0.0 - - - - - - -
29/02:00pm 32.1 WSW 15 17 1008.8 - 0.0 - - - - - - -
29/01:30pm 32.2 WSW 14 17 1009.1 - 0.0 - - - - - - -
29/01:00pm 32.1 WSW 15 17 1009.6 - 0.0 - - - - - - -
29/12:30pm 32.3 WSW 14 16 1010.2 - 0.0 - - - - - - -
29/12:00pm 32.6 WSW 13 16 1010.6 - 0.0 - - - - - - -
29/11:30am 31.8 WSW 12 15 1010.7 - 0.0 - - - - - - -
29/11:00am 32.0 WSW 13 15 1011.0 - 0.0 - - - - - - -
29/10:30am 31.8 SW 12 15 1011.0 - 0.0 - - - - - - -
29/10:00am 31.3 WSW 13 15 1010.8 - 0.0 - - - - - - -
29/09:30am 29.7 WSW 13 15 1010.8 - 0.0 - - - - - - -
29/09:00am 29.5 WSW 13 15 1010.6 - 0.0 - - - - - - -
29/08:30am 29.8 WSW 14 16 1010.3 - 0.0 - - - - - - -
29/08:00am 29.2 WSW 14 17 1010.0 - 0.0 - - - - - - -
29/07:30am 28.6 WSW 11 14 1009.8 - 0.0 - - - - - - -
29/07:00am 27.9 WSW 14 17 1009.5 - 0.0 - - - - - - -
29/06:30am 29.0 WSW 13 15 1009.4 - 0.0 - - - - - - -
29/06:00am 29.0 WSW 12 14 1009.1 - 0.0 - - - - - - -
29/05:30am 29.0 WSW 13 16 1008.8 - 0.0 - - - - - - -
29/05:00am 29.1 WSW 13 16 1008.7 - 0.0 - - - - - - -
29/04:30am 29.1 WSW 14 16 1008.6 - 0.0 - - - - - - -
29/04:00am 29.0 WSW 15 18 1008.3 - 0.0 - - - - - - -
29/03:30am 29.1 WSW 15 18 1008.4 - 0.0 - - - - - - -
29/03:00am 29.0 WSW 16 18 1008.5 - 0.0 - - - - - - -
29/02:30am 29.1 WSW 17 20 1008.6 - 0.0 - - - - - - -
29/02:00am 29.1 WSW 16 19 1008.9 - 0.0 - - - - - - -
29/01:30am 29.1 WSW 17 20 1009.2 - 0.0 - - - - - - -
29/01:00am 29.2 WSW 16 19 1009.6 - 0.0 - - - - - - -
29/12:30am 29.2 WSW 17 20 1009.9 - 0.0 - - - - - - -
29/12:00am 29.3 WSW 16 19 1010.1 - 0.0 - - - - - - -
 
Date/Time
CST
Temp
°C
Wind Pressure Rain since
9am
mm
Weather Cloud Vis
km
Sea
Height
m
Swell
Dir  Spd
kts
Gust
kts
hPa Trend Height
m
Period
s
Dir
28/11:30pm 29.2 WSW 16 18 1010.2 - 0.0 - - - - - - -
28/11:00pm 29.3 W 15 18 1010.2 - 0.0 - - - - - - -
28/10:30pm 29.3 WSW 14 17 1010.4 - 0.0 - - - - - - -
28/10:00pm 29.2 W 15 18 1010.1 - 0.0 - - - - - - -
28/09:30pm 29.1 WSW 14 17 1009.7 - 0.0 - - - - - - -
28/09:00pm 29.0 WSW 15 18 1009.6 - 0.0 - - - - - - -
28/08:30pm 29.0 WSW 15 18 1008.9 - 0.0 - - - - - - -
28/08:00pm 29.0 WSW 15 19 1008.3 - 0.0 - - - - - - -
28/07:30pm 29.0 W 16 19 1007.6 - 0.0 - - - - - - -
28/07:00pm 29.2 W 15 18 1007.5 - 0.0 - - - - - - -
28/06:30pm 29.4 W 15 18 1007.7 - 0.0 - - - - - - -
28/06:00pm 29.8 W 16 19 1007.1 - 0.0 - - - - - - -
28/05:30pm 30.2 W 17 19 1007.3 - 0.0 - - - - - - -
28/05:00pm 30.5 W 15 18 1007.3 - 0.0 - - - - - - -
28/04:30pm 30.5 W 15 19 1007.6 - 0.0 - - - - - - -
28/04:00pm 30.7 W 15 18 1007.8 - 0.0 - - - - - - -
28/03:30pm 31.3 W 13 16 1008.1 - 0.0 - - - - - - -
28/03:00pm 31.1 W 14 17 1008.2 - 0.0 - - - - - - -
28/02:30pm 31.4 W 14 16 1008.6 - 0.0 - - - - - - -
28/02:00pm 31.2 WSW 13 16 1009.3 - 0.0 - - - - - - -
28/01:30pm 31.8 WSW 13 16 1009.8 - 0.0 - - - - - - -
28/01:00pm 32.2 WSW 12 15 1010.3 - 0.0 - - - - - - -
28/12:30pm 31.3 W 12 15 1010.5 - 0.0 - - - - - - -
28/12:00pm 31.8 WSW 13 16 1010.9 - 0.0 - - - - - - -
28/11:30am 30.6 W 12 15 1011.4 - 0.0 - - - - - - -
28/11:00am 31.0 W 12 16 1011.6 - 0.0 - - - - - - -
28/10:30am 30.6 WSW 11 14 1011.7 - 0.0 - - - - - - -
28/10:00am 30.3 WSW 12 14 1011.4 - 0.0 - - - - - - -
28/09:30am 29.9 WSW 12 15 1011.2 - 0.0 - - - - - - -
28/09:00am 29.4 WSW 14 18 1011.0 - 0.0 - - - - - - -
28/08:30am 29.3 W 12 14 1010.8 - 0.0 - - - - - - -
28/08:00am 28.9 W 14 16 1010.3 - 0.0 - - - - - - -
28/07:30am 28.7 W 14 17 1010.0 - 0.0 - - - - - - -
28/07:00am 28.6 W 15 18 1009.4 - 0.0 - - - - - - -
28/06:30am 28.6 W 15 18 1009.1 - 0.0 - - - - - - -
28/06:00am 28.6 W 14 18 1009.1 - 0.0 - - - - - - -
28/05:30am 28.8 WSW 15 18 1009.5 - 0.0 - - - - - - -
28/05:00am 28.8 WSW 15 19 1009.4 - 0.0 - - - - - - -
28/04:30am 28.9 W 16 19 1009.4 - 0.0 - - - - - - -
28/04:00am 29.0 W 17 20 1009.4 - 0.0 - - - - - - -
28/03:30am 29.0 W 17 19 1009.5 - 0.0 - - - - - - -
28/03:00am 29.1 W 16 20 1009.9 - 0.0 - - - - - - -
28/02:30am 29.1 W 17 20 1009.9 - 0.0 - - - - - - -
28/02:00am 29.2 W 16 18 1010.1 - 0.0 - - - - - - -

Other Formats:

Comma delimited format used in spreadsheet applications
http://www.bom.gov.au/fwo/IDD60701/IDD60701.94102.axf

JavaScript Object Notation format (JSON) in row-major order
http://www.bom.gov.au/fwo/IDD60701/IDD60701.94102.json